createdAt,value
2022-10-02T00:01:48.576Z,32.78
2022-10-02T00:04:26.251Z,32.74
2022-10-02T00:07:05.772Z,32.72
2022-10-02T00:09:44.292Z,32.69
2022-10-02T00:12:26.552Z,32.67
2022-10-02T00:15:03.061Z,32.66
2022-10-02T00:17:43.047Z,32.67
2022-10-02T00:20:18.342Z,32.63
2022-10-02T00:22:59.424Z,32.61
2022-10-02T00:25:38.100Z,32.59
2022-10-02T00:28:24.133Z,32.57
2022-10-02T00:31:23.423Z,32.55
2022-10-02T00:34:14.353Z,32.53
2022-10-02T00:37:03.357Z,32.52
2022-10-02T00:39:58.876Z,32.53
2022-10-02T00:43:04.728Z,32.52
2022-10-02T00:46:04.573Z,32.50
2022-10-02T00:48:59.757Z,32.52
2022-10-02T00:51:51.897Z,32.50
2022-10-02T00:54:56.230Z,32.48
2022-10-02T00:57:50.052Z,32.46
2022-10-02T01:00:23.508Z,32.43
2022-10-02T01:03:13.843Z,32.42
2022-10-02T01:05:44.901Z,32.41
2022-10-02T01:08:15.735Z,32.40
2022-10-02T01:10:47.315Z,32.39
2022-10-02T01:13:18.281Z,32.37
2022-10-02T01:15:55.412Z,32.38
2022-10-02T01:18:27.355Z,32.37
2022-10-02T01:21:08.040Z,32.38
2022-10-02T01:23:47.703Z,32.39
2022-10-02T01:26:20.406Z,32.38
2022-10-02T01:28:51.479Z,32.39
2022-10-02T01:31:22.930Z,32.38
2022-10-02T01:33:54.015Z,32.36
2022-10-02T01:36:26.166Z,32.36
2022-10-02T01:38:57.303Z,32.34
2022-10-02T01:41:30.560Z,32.32
2022-10-02T01:44:04.651Z,32.30
2022-10-02T01:46:42.087Z,32.28
2022-10-02T01:49:34.698Z,32.28
2022-10-02T01:52:33.030Z,32.26
2022-10-02T01:55:24.722Z,32.26
2022-10-02T01:58:18.965Z,32.26
2022-10-02T02:01:06.374Z,32.25
2022-10-02T02:03:56.064Z,32.25
2022-10-02T02:06:36.325Z,32.24
2022-10-02T02:09:19.779Z,32.24
2022-10-02T02:12:00.526Z,32.19
2022-10-02T02:14:38.583Z,32.17
2022-10-02T02:17:15.522Z,32.12
2022-10-02T02:19:55.508Z,32.10
2022-10-02T02:22:32.768Z,32.06
2022-10-02T02:25:10.955Z,32.04
2022-10-02T02:27:48.373Z,32.03
2022-10-02T02:30:23.267Z,32.02
2022-10-02T02:32:59.383Z,32.01
2022-10-02T02:35:36.961Z,31.98
2022-10-02T02:38:15.103Z,31.96
2022-10-02T02:40:49.439Z,31.94
2022-10-02T02:43:27.206Z,31.93
2022-10-02T02:46:05.390Z,31.93
2022-10-02T02:48:42.204Z,31.92
2022-10-02T02:51:20.567Z,31.92
2022-10-02T02:54:00.001Z,31.90
2022-10-02T02:56:35.312Z,31.91
2022-10-02T02:59:14.008Z,31.91
2022-10-02T03:01:46.028Z,31.90
2022-10-02T03:04:17.534Z,31.90
2022-10-02T03:06:50.994Z,31.88
2022-10-02T03:09:24.966Z,31.87
2022-10-02T03:12:12.338Z,31.84
2022-10-02T03:15:13.517Z,31.82
2022-10-02T03:18:21.469Z,31.80
2022-10-02T03:21:06.421Z,31.76
2022-10-02T03:23:48.003Z,31.75
2022-10-02T03:26:24.019Z,31.74
2022-10-02T03:28:58.111Z,31.71
2022-10-02T03:31:33.058Z,31.71
2022-10-02T03:34:07.901Z,31.70
2022-10-02T03:36:39.371Z,31.69
2022-10-02T03:39:24.675Z,31.68
2022-10-02T03:41:56.668Z,31.66
2022-10-02T03:44:27.460Z,31.66
2022-10-02T03:46:57.806Z,31.66
2022-10-02T03:49:31.227Z,31.66
2022-10-02T03:52:01.503Z,31.64
2022-10-02T03:54:38.135Z,31.64
2022-10-02T03:57:14.031Z,31.65
2022-10-02T03:59:52.878Z,31.65
2022-10-02T04:02:35.714Z,31.66
2022-10-02T04:05:22.217Z,31.67
2022-10-02T04:08:00.323Z,31.67
2022-10-02T04:10:42.554Z,31.66
2022-10-02T04:13:19.071Z,31.66
2022-10-02T04:16:01.010Z,31.67
2022-10-02T04:18:41.217Z,31.66
2022-10-02T04:21:28.687Z,31.67
2022-10-02T04:24:07.438Z,31.68
2022-10-02T04:26:44.537Z,31.70
2022-10-02T04:29:24.458Z,31.72
2022-10-02T04:32:08.455Z,31.74
2022-10-02T04:34:38.670Z,31.76
2022-10-02T04:37:42.919Z,31.80
2022-10-02T04:40:38.277Z,31.84
2022-10-02T04:43:32.992Z,31.88
2022-10-02T04:46:24.526Z,31.91
2022-10-02T04:49:42.054Z,31.97
2022-10-02T04:52:32.892Z,32.04
2022-10-02T04:55:39.774Z,32.10
2022-10-02T04:58:35.659Z,32.18
2022-10-02T05:01:22.827Z,32.26
2022-10-02T05:04:33.524Z,32.34
2022-10-02T05:07:36.476Z,32.38
2022-10-02T05:10:28.869Z,32.42
2022-10-02T05:13:15.562Z,32.45
2022-10-02T05:16:05.330Z,32.53
2022-10-02T05:19:15.162Z,32.62
2022-10-02T05:22:22.283Z,32.70
2022-10-02T05:25:16.000Z,32.81
2022-10-02T05:28:09.809Z,32.92
2022-10-02T05:30:52.524Z,33.02
2022-10-02T05:33:48.588Z,33.12
2022-10-02T05:36:48.432Z,33.21
2022-10-02T05:39:25.547Z,33.29
2022-10-02T05:42:10.588Z,33.37
2022-10-02T05:44:47.265Z,33.40
2022-10-02T05:47:24.660Z,33.45
2022-10-02T05:50:01.436Z,33.51
2022-10-02T05:52:41.587Z,33.58
2022-10-02T05:55:22.981Z,33.64
2022-10-02T05:58:04.440Z,33.72
2022-10-02T06:00:42.942Z,33.79
2022-10-02T06:03:22.877Z,33.88
2022-10-02T06:06:00.245Z,33.97
2022-10-02T06:08:37.325Z,34.04
2022-10-02T06:11:14.574Z,34.14
2022-10-02T06:13:53.525Z,34.22
2022-10-02T06:16:32.550Z,34.29
2022-10-02T06:19:14.316Z,34.40
2022-10-02T06:21:54.490Z,34.50
2022-10-02T06:24:32.933Z,34.58
2022-10-02T06:27:13.178Z,34.67
2022-10-02T06:29:54.333Z,34.75
2022-10-02T06:32:36.528Z,34.82
2022-10-02T06:35:15.821Z,34.88
2022-10-02T06:38:07.485Z,34.96
2022-10-02T06:40:58.073Z,35.03
2022-10-02T06:44:03.809Z,35.13
2022-10-02T06:46:51.297Z,35.24
2022-10-02T06:49:39.721Z,35.34
2022-10-02T06:52:33.305Z,35.40
2022-10-02T06:55:31.673Z,35.46
2022-10-02T06:58:23.406Z,35.52
2022-10-02T07:01:07.163Z,35.60
2022-10-02T07:04:07.481Z,35.67
2022-10-02T07:06:59.040Z,35.74
2022-10-02T07:10:31.906Z,35.81
2022-10-02T07:13:36.798Z,35.88
2022-10-02T07:16:39.249Z,35.95
2022-10-02T07:19:41.636Z,36.00
2022-10-02T07:22:44.603Z,36.06
2022-10-02T07:25:51.329Z,36.11
2022-10-02T07:28:32.941Z,36.16
2022-10-02T07:31:12.162Z,36.24
2022-10-02T07:34:03.049Z,36.32
2022-10-02T07:36:54.938Z,36.40
2022-10-02T07:39:44.329Z,36.47
2022-10-02T07:42:47.062Z,36.54
2022-10-02T07:45:35.440Z,36.61
2022-10-02T07:48:31.048Z,36.66
2022-10-02T07:51:50.570Z,36.72
2022-10-02T07:55:02.306Z,36.76
2022-10-02T07:57:42.605Z,36.81
2022-10-02T08:00:17.470Z,36.86
2022-10-02T08:02:54.138Z,36.94
2022-10-02T08:05:30.318Z,36.99
2022-10-02T08:08:07.568Z,37.05
2022-10-02T08:10:49.122Z,37.11
2022-10-02T08:13:26.132Z,37.16
2022-10-02T08:15:59.543Z,37.21
2022-10-02T08:18:39.035Z,37.26
2022-10-02T08:21:18.326Z,37.32
2022-10-02T08:23:59.588Z,37.37
2022-10-02T08:26:38.992Z,37.41
2022-10-02T08:29:17.650Z,37.44
2022-10-02T08:31:48.473Z,37.47
2022-10-02T08:34:24.783Z,37.50
2022-10-02T08:37:29.959Z,37.52
2022-10-02T08:40:58.009Z,37.51
2022-10-02T08:44:27.522Z,37.52
2022-10-02T08:48:00.142Z,37.54
2022-10-02T08:51:30.516Z,37.56
2022-10-02T08:54:52.192Z,37.58
2022-10-02T08:57:59.102Z,37.59
2022-10-02T09:00:42.268Z,37.61
2022-10-02T09:04:31.637Z,37.61
2022-10-02T09:08:16.809Z,37.60
2022-10-02T09:11:53.538Z,37.59
2022-10-02T09:14:58.758Z,37.58
2022-10-02T09:18:00.350Z,37.61
2022-10-02T09:20:56.464Z,37.62
2022-10-02T09:24:12.922Z,37.59
2022-10-02T09:27:36.355Z,37.55
2022-10-02T09:31:09.537Z,37.55
2022-10-02T09:34:26.366Z,37.53
2022-10-02T09:37:39.187Z,37.52
2022-10-02T09:40:58.947Z,37.53
2022-10-02T09:44:25.168Z,37.54
2022-10-02T09:47:50.407Z,37.53
2022-10-02T09:51:06.377Z,37.53
2022-10-02T09:54:33.343Z,37.53
2022-10-02T09:57:54.404Z,37.50
2022-10-02T10:01:13.797Z,37.48
2022-10-02T10:05:04.013Z,37.45
2022-10-02T10:08:16.403Z,37.44
2022-10-02T10:11:31.653Z,37.45
2022-10-02T10:15:00.333Z,37.45
2022-10-02T10:18:10.826Z,37.45
2022-10-02T10:21:30.314Z,37.43
2022-10-02T10:24:44.021Z,37.40
2022-10-02T10:27:53.877Z,37.40
2022-10-02T10:30:58.703Z,37.39
2022-10-02T10:34:20.322Z,37.37
2022-10-02T10:37:20.031Z,37.36
2022-10-02T10:40:40.723Z,37.33
2022-10-02T10:44:14.840Z,37.25
2022-10-02T10:47:35.042Z,37.19
2022-10-02T10:50:45.648Z,37.13
2022-10-02T10:54:26.615Z,37.09
2022-10-02T10:57:08.396Z,37.07
2022-10-02T11:00:12.484Z,36.98
2022-10-02T11:03:45.975Z,36.92
2022-10-02T11:07:03.365Z,36.86
2022-10-02T11:10:11.612Z,36.83
2022-10-02T11:13:27.470Z,36.81
2022-10-02T11:16:27.774Z,36.75
2022-10-02T11:19:44.484Z,36.66
2022-10-02T11:23:19.945Z,36.63
2022-10-02T11:26:29.839Z,36.63
2022-10-02T11:29:28.461Z,36.65
2022-10-02T11:32:34.220Z,36.66
2022-10-02T11:35:26.442Z,36.64
2022-10-02T11:38:47.280Z,36.63
2022-10-02T11:41:47.225Z,36.63
2022-10-02T11:45:03.175Z,36.62
2022-10-02T11:48:09.717Z,36.59
2022-10-02T11:51:18.369Z,36.57
2022-10-02T11:54:18.946Z,36.57
2022-10-02T11:57:33.546Z,36.53
2022-10-02T12:00:36.442Z,36.52
2022-10-02T12:03:23.100Z,36.52
2022-10-02T12:06:08.760Z,36.49
2022-10-02T12:09:00.450Z,36.49
2022-10-02T12:11:43.469Z,36.47
2022-10-02T12:14:36.447Z,36.45
2022-10-02T12:17:32.620Z,36.42
2022-10-02T12:20:36.963Z,36.38
2022-10-02T12:23:43.353Z,36.30
2022-10-02T12:26:46.229Z,36.23
2022-10-02T12:29:28.055Z,36.17
2022-10-02T12:32:09.052Z,36.13
2022-10-02T12:35:02.636Z,36.09
2022-10-02T12:37:46.511Z,36.05
2022-10-02T12:40:28.121Z,36.02
2022-10-02T12:43:44.237Z,36.00
2022-10-02T12:46:55.931Z,35.96
2022-10-02T12:49:46.058Z,35.93
2022-10-02T12:52:58.690Z,35.89
2022-10-02T12:56:09.275Z,35.83
2022-10-02T12:59:02.592Z,35.79
2022-10-02T13:02:56.126Z,35.72
2022-10-02T13:06:13.787Z,35.65
2022-10-02T13:09:18.897Z,35.63
2022-10-02T13:12:13.535Z,35.60
2022-10-02T13:15:37.955Z,35.58
2022-10-02T13:18:39.017Z,35.57
2022-10-02T13:21:22.665Z,35.55
2022-10-02T13:24:18.147Z,35.53
2022-10-02T13:26:59.660Z,35.50
2022-10-02T13:29:53.857Z,35.47
2022-10-02T13:33:08.773Z,35.44
2022-10-02T13:36:09.667Z,35.42
2022-10-02T13:39:16.573Z,35.38
2022-10-02T13:42:15.080Z,35.34
2022-10-02T13:45:00.840Z,35.33
2022-10-02T13:47:44.848Z,35.32
2022-10-02T13:50:40.237Z,35.31
2022-10-02T13:53:42.327Z,35.25
2022-10-02T13:56:36.447Z,35.22
2022-10-02T13:59:40.232Z,35.20
2022-10-02T14:02:46.955Z,35.18
2022-10-02T14:05:36.830Z,35.16
2022-10-02T14:08:35.807Z,35.14
2022-10-02T14:11:30.549Z,35.11
2022-10-02T14:14:20.563Z,35.09
2022-10-02T14:17:07.498Z,35.06
2022-10-02T14:20:21.205Z,35.04
2022-10-02T14:23:20.692Z,34.98
2022-10-02T14:26:08.563Z,34.96
2022-10-02T14:29:11.816Z,34.95
2022-10-02T14:32:24.309Z,34.93
2022-10-02T14:35:12.359Z,34.90
2022-10-02T14:38:10.239Z,34.89
2022-10-02T14:40:53.827Z,34.87
2022-10-02T14:44:06.990Z,34.84
2022-10-02T14:47:02.004Z,34.81
2022-10-02T14:49:53.023Z,34.79
2022-10-02T14:52:57.337Z,34.75
2022-10-02T14:55:49.720Z,34.71
2022-10-02T14:58:40.714Z,34.70
2022-10-02T15:01:24.995Z,34.68
2022-10-02T15:04:33.240Z,34.65
2022-10-02T15:07:10.455Z,34.64
2022-10-02T15:10:04.102Z,34.64
2022-10-02T15:12:51.998Z,34.62
2022-10-02T15:15:36.554Z,34.62
2022-10-02T15:18:33.342Z,34.60
2022-10-02T15:21:21.619Z,34.58
2022-10-02T15:23:53.331Z,34.56
2022-10-02T15:26:51.947Z,34.55
2022-10-02T15:29:37.794Z,34.52
2022-10-02T15:32:38.847Z,34.50
2022-10-02T15:35:28.441Z,34.49
2022-10-02T15:38:32.140Z,34.47
2022-10-02T15:41:40.381Z,34.43
2022-10-02T15:44:53.484Z,34.41
2022-10-02T15:47:51.028Z,34.37
2022-10-02T15:50:35.892Z,34.36
2022-10-02T15:53:43.730Z,34.34
2022-10-02T15:56:47.793Z,34.32
2022-10-02T15:59:42.014Z,34.30
2022-10-02T16:03:06.504Z,34.27
2022-10-02T16:06:10.493Z,34.25
2022-10-02T16:09:33.112Z,34.21
2022-10-02T16:12:28.627Z,34.20
2022-10-02T16:15:19.594Z,34.21
2022-10-02T16:18:27.005Z,34.20
2022-10-02T16:21:39.593Z,34.17
2022-10-02T16:24:43.784Z,34.16
2022-10-02T16:27:33.045Z,34.16
2022-10-02T16:30:14.055Z,34.16
2022-10-02T16:33:21.402Z,34.16
2022-10-02T16:36:18.169Z,34.14
2022-10-02T16:38:55.561Z,34.07
2022-10-02T16:41:38.992Z,34.03
2022-10-02T16:44:46.075Z,33.98
2022-10-02T16:47:28.517Z,33.96
2022-10-02T16:50:07.578Z,33.97
2022-10-02T16:52:51.795Z,33.98
2022-10-02T16:55:34.276Z,33.99
2022-10-02T16:58:22.231Z,33.99
2022-10-02T17:00:59.797Z,34.00
2022-10-02T17:03:37.624Z,34.01
2022-10-02T17:06:20.639Z,34.02
2022-10-02T17:09:06.290Z,34.01
2022-10-02T17:11:52.288Z,34.00
2022-10-02T17:14:31.627Z,33.98
2022-10-02T17:17:12.973Z,33.97
2022-10-02T17:19:51.614Z,33.96
2022-10-02T17:22:36.569Z,33.96
2022-10-02T17:25:27.365Z,33.94
2022-10-02T17:28:11.294Z,33.92
2022-10-02T17:31:17.956Z,33.90
2022-10-02T17:33:54.943Z,33.88
2022-10-02T17:36:37.829Z,33.86
2022-10-02T17:39:43.590Z,33.82
2022-10-02T17:42:35.862Z,33.81
2022-10-02T17:45:36.303Z,33.79
2022-10-02T17:48:42.629Z,33.78
2022-10-02T17:51:52.419Z,33.76
2022-10-02T17:55:12.604Z,33.77
2022-10-02T17:58:01.536Z,33.77
2022-10-02T18:00:42.361Z,33.77
2022-10-02T18:03:37.384Z,33.76
2022-10-02T18:06:23.537Z,33.75
2022-10-02T18:09:34.397Z,33.72
2022-10-02T18:12:53.415Z,33.70
2022-10-02T18:15:58.917Z,33.68
2022-10-02T18:18:40.823Z,33.66
2022-10-02T18:21:31.596Z,33.66
2022-10-02T18:24:25.393Z,33.65
2022-10-02T18:27:26.998Z,33.64
2022-10-02T18:30:18.556Z,33.64
2022-10-02T18:33:36.182Z,33.61
2022-10-02T18:36:28.320Z,33.60
2022-10-02T18:39:09.608Z,33.61
2022-10-02T18:42:01.873Z,33.59
2022-10-02T18:44:57.771Z,33.58
2022-10-02T18:48:00.691Z,33.57
2022-10-02T18:50:54.304Z,33.55
2022-10-02T18:53:48.967Z,33.55
2022-10-02T18:56:39.849Z,33.54
2022-10-02T18:59:26.054Z,33.52
2022-10-02T19:02:20.918Z,33.53
2022-10-02T19:05:29.253Z,33.50
2022-10-02T19:08:20.349Z,33.49
2022-10-02T19:10:51.015Z,33.48
2022-10-02T19:13:29.353Z,33.50
2022-10-02T19:16:01.893Z,33.50
2022-10-02T19:18:33.475Z,33.51
2022-10-02T19:21:10.746Z,33.51
2022-10-02T19:23:52.266Z,33.52
2022-10-02T19:26:27.915Z,33.49
2022-10-02T19:29:03.368Z,33.49
2022-10-02T19:31:41.858Z,33.48
2022-10-02T19:34:33.564Z,33.47
2022-10-02T19:37:09.540Z,33.46
2022-10-02T19:39:51.801Z,33.45
2022-10-02T19:42:29.297Z,33.44
2022-10-02T19:45:04.509Z,33.44
2022-10-02T19:47:44.650Z,33.44
2022-10-02T19:50:23.844Z,33.43
2022-10-02T19:53:00.297Z,33.42
2022-10-02T19:55:39.093Z,33.40
2022-10-02T19:58:18.302Z,33.39
2022-10-02T20:00:50.060Z,33.36
2022-10-02T20:03:24.273Z,33.33
2022-10-02T20:06:00.738Z,33.32
2022-10-02T20:08:35.329Z,33.30
2022-10-02T20:11:13.495Z,33.29
2022-10-02T20:13:49.730Z,33.26
2022-10-02T20:16:42.451Z,33.23
2022-10-02T20:19:21.954Z,33.21
2022-10-02T20:21:56.749Z,33.21
2022-10-02T20:24:44.404Z,33.21
2022-10-02T20:27:25.276Z,33.19
2022-10-02T20:30:03.967Z,33.19
2022-10-02T20:32:42.740Z,33.19
2022-10-02T20:35:20.851Z,33.19
2022-10-02T20:37:56.152Z,33.19
2022-10-02T20:40:33.057Z,33.18
2022-10-02T20:43:18.398Z,33.18
2022-10-02T20:46:10.021Z,33.17
2022-10-02T20:49:22.918Z,33.14
2022-10-02T20:52:31.734Z,33.13
2022-10-02T20:55:12.077Z,33.12
2022-10-02T20:58:14.957Z,33.10
2022-10-02T21:01:09.547Z,33.08
2022-10-02T21:07:15.429Z,33.05
2022-10-02T21:10:32.700Z,33.03
2022-10-02T21:13:44.516Z,33.01
2022-10-02T21:17:37.932Z,32.97
2022-10-02T21:21:15.352Z,32.94
2022-10-02T21:24:23.404Z,32.92
2022-10-02T21:27:39.361Z,32.92
2022-10-02T21:30:20.225Z,32.92
2022-10-02T21:33:07.302Z,32.91
2022-10-02T21:35:53.776Z,32.90
2022-10-02T21:39:14.430Z,32.87
2022-10-02T21:43:02.402Z,32.83
2022-10-02T21:46:23.584Z,32.80
2022-10-02T21:49:56.383Z,32.76
2022-10-02T21:53:25.668Z,32.75
2022-10-02T21:56:52.513Z,32.70
2022-10-02T22:00:22.595Z,32.65
2022-10-02T22:03:40.070Z,32.64
2022-10-02T22:06:50.038Z,32.62
2022-10-02T22:09:38.795Z,32.62
2022-10-02T22:12:31.500Z,32.64
2022-10-02T22:15:17.494Z,32.63
2022-10-02T22:18:01.102Z,32.63
2022-10-02T22:21:01.462Z,32.63
2022-10-02T22:24:01.653Z,32.61
2022-10-02T22:27:15.801Z,32.59
2022-10-02T22:29:52.140Z,32.58
2022-10-02T22:33:10.777Z,32.58
2022-10-02T22:36:30.375Z,32.52
2022-10-02T22:39:12.020Z,32.50
2022-10-02T22:41:56.971Z,32.49
2022-10-02T22:44:37.335Z,32.48
2022-10-02T22:47:17.778Z,32.46
2022-10-02T22:49:54.057Z,32.44
2022-10-02T22:52:31.324Z,32.44
2022-10-02T22:55:11.058Z,32.43
2022-10-02T22:57:50.855Z,32.41
2022-10-02T23:00:24.198Z,32.40
2022-10-02T23:03:04.449Z,32.39
2022-10-02T23:05:44.648Z,32.37
2022-10-02T23:08:32.641Z,32.36
2022-10-02T23:11:16.048Z,32.35
2022-10-02T23:13:55.042Z,32.34
2022-10-02T23:16:35.602Z,32.33
2022-10-02T23:19:15.326Z,32.31
2022-10-02T23:21:52.127Z,32.29
2022-10-02T23:24:32.767Z,32.26
2022-10-02T23:27:22.168Z,32.23
2022-10-02T23:30:01.779Z,32.20
2022-10-02T23:32:46.335Z,32.16
2022-10-02T23:35:28.433Z,32.15
2022-10-02T23:38:09.996Z,32.12
2022-10-02T23:41:20.768Z,32.10
2022-10-02T23:44:05.157Z,32.07
2022-10-02T23:46:56.231Z,32.04
2022-10-02T23:49:34.340Z,32.02
2022-10-02T23:52:38.749Z,32.00
2022-10-02T23:55:27.497Z,31.96
2022-10-02T23:58:37.764Z,31.92
